createdAt,value
2019-01-19T00:00:34.200Z,0.00
2019-01-19T00:01:38.286Z,0.00
2019-01-19T00:02:34.390Z,0.00
2019-01-19T00:03:34.468Z,0.00
2019-01-19T00:04:34.553Z,0.00
2019-01-19T00:05:34.645Z,0.00
2019-01-19T00:06:34.733Z,0.00
2019-01-19T00:07:38.247Z,0.00
2019-01-19T00:08:34.948Z,0.00
2019-01-19T00:09:35.046Z,0.00
2019-01-19T00:10:35.133Z,0.00
2019-01-19T00:11:35.217Z,0.00
2019-01-19T00:12:35.310Z,0.00
2019-01-19T00:13:39.223Z,0.00
2019-01-19T00:14:35.437Z,0.00
2019-01-19T00:15:35.518Z,0.00
2019-01-19T00:16:35.613Z,0.00
2019-01-19T00:17:35.700Z,0.00
2019-01-19T00:18:35.788Z,0.00
2019-01-19T00:19:39.192Z,0.00
2019-01-19T00:20:36.027Z,0.00
2019-01-19T00:21:36.113Z,0.00
2019-01-19T00:22:36.200Z,0.00
2019-01-19T00:23:36.277Z,0.00
2019-01-19T00:24:40.352Z,0.00
2019-01-19T00:25:36.439Z,0.00
2019-01-19T00:26:36.523Z,0.00
2019-01-19T00:27:36.619Z,0.00
2019-01-19T00:28:36.696Z,0.00
2019-01-19T00:29:36.785Z,0.00
2019-01-19T00:30:40.328Z,0.00
2019-01-19T00:31:36.929Z,0.00
2019-01-19T00:32:37.008Z,0.00
2019-01-19T00:33:37.097Z,0.00
2019-01-19T00:34:37.196Z,0.00
2019-01-19T00:35:37.263Z,0.00
2019-01-19T00:36:41.321Z,0.00
2019-01-19T00:37:37.408Z,0.00
2019-01-19T00:38:37.494Z,0.00
2019-01-19T00:39:37.579Z,0.00
2019-01-19T00:40:37.671Z,0.00
2019-01-19T00:41:37.790Z,0.00
2019-01-19T00:42:41.310Z,0.00
2019-01-19T00:43:38.021Z,0.00
2019-01-19T00:44:38.104Z,0.00
2019-01-19T00:45:38.190Z,0.00
2019-01-19T00:46:38.282Z,0.00
2019-01-19T00:47:38.376Z,0.00
2019-01-19T00:48:42.308Z,0.00
2019-01-19T00:49:38.524Z,0.00
2019-01-19T00:50:38.611Z,0.00
2019-01-19T00:51:38.685Z,0.00
2019-01-19T00:52:38.770Z,0.00
2019-01-19T00:53:38.860Z,0.00
2019-01-19T00:54:42.281Z,0.00
2019-01-19T00:55:38.999Z,0.00
2019-01-19T00:56:39.083Z,0.00
2019-01-19T00:57:39.166Z,0.00
2019-01-19T00:58:39.253Z,0.00
2019-01-19T00:59:39.346Z,0.00
2019-01-19T01:00:43.267Z,0.00
2019-01-19T01:01:39.546Z,0.00
2019-01-19T01:02:39.624Z,0.00
2019-01-19T01:03:39.709Z,0.00
2019-01-19T01:04:39.794Z,0.00
2019-01-19T01:05:39.886Z,0.00
2019-01-19T01:06:43.260Z,0.00
2019-01-19T01:07:40.095Z,0.00
2019-01-19T01:08:40.180Z,0.00
2019-01-19T01:09:40.264Z,0.00
2019-01-19T01:10:40.349Z,0.00
2019-01-19T01:11:44.419Z,0.00
2019-01-19T01:12:40.542Z,0.00
2019-01-19T01:13:40.601Z,0.00
2019-01-19T01:14:40.685Z,0.00
2019-01-19T01:15:40.777Z,0.00
2019-01-19T01:16:40.864Z,0.00
2019-01-19T01:17:44.381Z,0.00
2019-01-19T01:18:41.105Z,0.00
2019-01-19T01:19:41.189Z,0.00
2019-01-19T01:20:41.273Z,0.00
2019-01-19T01:21:41.358Z,0.00
2019-01-19T01:22:41.449Z,0.00
2019-01-19T01:23:45.369Z,0.00
2019-01-19T01:24:41.580Z,0.00
2019-01-19T01:25:41.676Z,0.00
2019-01-19T01:26:41.745Z,0.00
2019-01-19T01:27:41.833Z,0.00
2019-01-19T01:28:41.921Z,0.00
2019-01-19T01:29:45.345Z,0.00
2019-01-19T01:30:42.057Z,0.00
2019-01-19T01:31:42.141Z,0.00
2019-01-19T01:32:42.231Z,0.00
2019-01-19T01:33:42.308Z,0.00
2019-01-19T01:34:42.398Z,0.00
2019-01-19T01:35:46.339Z,0.00
2019-01-19T01:36:42.552Z,0.00
2019-01-19T01:37:42.640Z,0.00
2019-01-19T01:38:42.722Z,0.00
2019-01-19T01:39:42.806Z,0.00
2019-01-19T01:40:42.901Z,0.00
2019-01-19T01:41:46.313Z,0.00
2019-01-19T01:42:43.020Z,0.00
2019-01-19T01:43:43.114Z,0.00
2019-01-19T01:44:43.199Z,0.00
2019-01-19T01:45:43.321Z,0.00
2019-01-19T01:46:47.471Z,0.00
2019-01-19T01:47:43.557Z,0.00
2019-01-19T01:48:43.639Z,0.00
2019-01-19T01:49:43.727Z,0.00
2019-01-19T01:50:43.810Z,0.00
2019-01-19T01:51:43.917Z,0.00
2019-01-19T01:52:47.474Z,0.00
2019-01-19T01:53:44.058Z,0.00
2019-01-19T01:54:44.144Z,0.00
2019-01-19T01:55:44.229Z,0.00
2019-01-19T01:56:44.307Z,0.00
2019-01-19T01:57:44.507Z,0.00
2019-01-19T01:58:48.474Z,0.00
2019-01-19T01:59:44.560Z,0.00
2019-01-19T02:00:44.644Z,0.00
2019-01-19T02:01:44.731Z,0.00
2019-01-19T02:02:44.814Z,0.00
2019-01-19T02:03:44.908Z,0.00
2019-01-19T02:04:48.476Z,0.00
2019-01-19T02:05:45.063Z,0.00
2019-01-19T02:06:45.146Z,0.00
2019-01-19T02:07:45.229Z,0.00
2019-01-19T02:08:45.319Z,0.00
2019-01-19T02:09:45.405Z,0.00
2019-01-19T02:10:49.474Z,0.00
2019-01-19T02:11:45.565Z,0.00
2019-01-19T02:12:45.654Z,0.00
2019-01-19T02:13:45.737Z,0.00
2019-01-19T02:14:45.821Z,0.00
2019-01-19T02:15:45.919Z,0.00
2019-01-19T02:16:49.469Z,0.00
2019-01-19T02:17:46.063Z,0.00
2019-01-19T02:18:46.142Z,0.00
2019-01-19T02:19:46.222Z,0.00
2019-01-19T02:20:46.307Z,0.00
2019-01-19T02:21:46.395Z,0.00
2019-01-19T02:22:50.480Z,0.00
2019-01-19T02:23:46.566Z,0.00
2019-01-19T02:24:46.660Z,0.00
2019-01-19T02:25:46.741Z,0.00
2019-01-19T02:26:46.829Z,0.00
2019-01-19T02:27:46.911Z,0.00
2019-01-19T02:28:50.453Z,0.00
2019-01-19T02:29:47.040Z,0.00
2019-01-19T02:30:47.178Z,0.00
2019-01-19T02:31:47.205Z,0.00
2019-01-19T02:32:47.284Z,0.00
2019-01-19T02:33:47.376Z,0.00
2019-01-19T02:34:51.461Z,0.00
2019-01-19T02:35:48.644Z,0.00
2019-01-19T02:36:47.619Z,0.00
2019-01-19T02:37:47.717Z,0.00
2019-01-19T02:38:47.787Z,0.00
2019-01-19T02:39:47.877Z,0.00
2019-01-19T02:40:51.439Z,0.00
2019-01-19T02:41:48.024Z,0.00
2019-01-19T02:42:48.118Z,0.00
2019-01-19T02:43:48.203Z,0.00
2019-01-19T02:44:48.288Z,0.00
2019-01-19T02:45:48.408Z,0.00
2019-01-19T02:46:52.448Z,0.00
2019-01-19T02:47:48.533Z,0.00
2019-01-19T02:48:48.613Z,0.00
2019-01-19T02:49:48.709Z,0.00
2019-01-19T02:50:48.796Z,0.00
2019-01-19T02:51:48.888Z,0.00
2019-01-19T02:52:52.409Z,0.00
2019-01-19T02:53:48.996Z,0.00
2019-01-19T02:54:49.082Z,0.00
2019-01-19T02:55:49.174Z,0.00
2019-01-19T02:56:49.246Z,0.00
2019-01-19T02:57:49.335Z,0.00
2019-01-19T02:58:53.392Z,0.00
2019-01-19T02:59:49.481Z,0.00
2019-01-19T03:00:49.566Z,0.00
2019-01-19T03:01:49.648Z,0.00
2019-01-19T03:02:49.734Z,0.00
2019-01-19T03:03:49.823Z,0.00
2019-01-19T03:04:54.418Z,0.00
2019-01-19T03:05:56.097Z,0.00
2019-01-19T03:06:50.090Z,0.00
2019-01-19T03:07:50.181Z,0.00
2019-01-19T03:08:50.287Z,0.00
2019-01-19T03:09:50.367Z,0.00
2019-01-19T03:10:54.391Z,0.00
2019-01-19T03:11:50.592Z,0.00
2019-01-19T03:12:50.671Z,0.00
2019-01-19T03:13:50.755Z,0.00
2019-01-19T03:14:50.846Z,0.00
2019-01-19T03:15:50.928Z,0.00
2019-01-19T03:16:54.354Z,0.00
2019-01-19T03:17:51.159Z,0.00
2019-01-19T03:18:51.145Z,0.00
2019-01-19T03:19:51.259Z,0.00
2019-01-19T03:20:51.370Z,0.00
2019-01-19T03:21:55.512Z,0.00
2019-01-19T03:22:51.598Z,0.00
2019-01-19T03:23:51.691Z,0.00
2019-01-19T03:24:51.776Z,0.00
2019-01-19T03:25:51.862Z,0.00
2019-01-19T03:26:51.957Z,0.00
2019-01-19T03:27:55.506Z,0.00
2019-01-19T03:28:52.094Z,0.00
2019-01-19T03:29:52.182Z,0.00
2019-01-19T03:30:52.263Z,0.00
2019-01-19T03:31:52.341Z,0.00
2019-01-19T03:32:52.433Z,0.00
2019-01-19T03:33:56.496Z,0.00
2019-01-19T03:34:52.571Z,0.00
2019-01-19T03:35:52.659Z,0.00
2019-01-19T03:36:52.742Z,0.00
2019-01-19T03:37:52.827Z,0.00
2019-01-19T03:38:52.924Z,0.00
2019-01-19T03:39:56.457Z,0.00
2019-01-19T03:40:53.160Z,0.00
2019-01-19T03:41:53.259Z,0.00
2019-01-19T03:42:53.335Z,0.00
2019-01-19T03:43:53.421Z,0.00
2019-01-19T03:44:53.516Z,0.00
2019-01-19T03:45:57.449Z,0.00
2019-01-19T03:46:53.649Z,0.00
2019-01-19T03:47:53.739Z,0.00
2019-01-19T03:48:53.819Z,0.00
2019-01-19T03:49:53.904Z,0.00
2019-01-19T03:50:53.993Z,0.00
2019-01-19T03:51:57.519Z,0.00
2019-01-19T03:52:54.232Z,0.00
2019-01-19T03:53:54.317Z,0.00
2019-01-19T03:54:54.402Z,0.00
2019-01-19T03:55:54.479Z,0.00
2019-01-19T03:56:58.601Z,0.00
2019-01-19T03:57:54.701Z,0.00
2019-01-19T03:58:54.782Z,0.00
2019-01-19T03:59:54.880Z,0.00
2019-01-19T04:00:54.982Z,0.00
2019-01-19T04:01:58.755Z,0.00
2019-01-19T04:02:55.209Z,0.00
2019-01-19T04:03:55.293Z,0.00
2019-01-19T04:04:55.375Z,0.00
2019-01-19T04:05:55.467Z,0.00
2019-01-19T04:06:55.556Z,0.00
2019-01-19T04:07:58.716Z,0.00
2019-01-19T04:08:55.684Z,0.00
2019-01-19T04:09:55.763Z,0.00
2019-01-19T04:10:55.853Z,0.00
2019-01-19T04:11:55.932Z,0.00
2019-01-19T04:12:59.877Z,0.00
2019-01-19T04:13:56.083Z,0.00
2019-01-19T04:14:56.171Z,0.00
2019-01-19T04:15:56.255Z,0.00
2019-01-19T04:16:56.361Z,0.00
2019-01-19T04:17:56.446Z,0.00
2019-01-19T04:18:59.848Z,0.00
2019-01-19T04:19:56.684Z,0.00
2019-01-19T04:20:56.766Z,0.00
2019-01-19T04:21:56.859Z,0.00
2019-01-19T04:22:56.934Z,0.00
2019-01-19T04:24:01.007Z,0.00
2019-01-19T04:24:57.093Z,0.00
2019-01-19T04:25:57.177Z,0.00
2019-01-19T04:26:57.264Z,0.00
2019-01-19T04:27:57.343Z,0.00
2019-01-19T04:28:57.431Z,0.00
2019-01-19T04:30:01.046Z,0.00
2019-01-19T04:30:57.574Z,0.00
2019-01-19T04:31:57.679Z,0.00
2019-01-19T04:32:57.757Z,0.00
2019-01-19T04:33:57.847Z,0.00
2019-01-19T04:34:57.953Z,0.00
2019-01-19T04:36:01.985Z,0.00
2019-01-19T04:36:58.068Z,0.00
2019-01-19T04:37:58.154Z,0.00
2019-01-19T04:38:58.236Z,0.00
2019-01-19T04:39:58.358Z,0.00
2019-01-19T04:40:58.419Z,0.00
2019-01-19T04:42:01.973Z,0.00
2019-01-19T04:42:58.559Z,0.00
2019-01-19T04:43:58.644Z,0.00
2019-01-19T04:44:58.730Z,0.00
2019-01-19T04:45:58.824Z,0.00
2019-01-19T04:46:58.959Z,0.00
2019-01-19T04:48:02.954Z,0.00
2019-01-19T04:48:59.165Z,0.00
2019-01-19T04:49:59.251Z,0.00
2019-01-19T04:50:59.338Z,0.00
2019-01-19T04:51:59.425Z,0.00
2019-01-19T04:52:59.505Z,0.00
2019-01-19T04:54:02.940Z,0.00
2019-01-19T04:54:59.625Z,0.00
2019-01-19T04:55:59.715Z,0.00
2019-01-19T04:56:59.801Z,0.00
2019-01-19T04:57:59.886Z,0.00
2019-01-19T04:58:59.975Z,0.00
2019-01-19T05:00:03.907Z,0.00
2019-01-19T05:01:00.117Z,0.00
2019-01-19T05:02:00.217Z,0.00
2019-01-19T05:03:00.293Z,0.00
2019-01-19T05:04:00.410Z,0.00
2019-01-19T05:05:00.511Z,0.00
2019-01-19T05:06:11.688Z,0.00
2019-01-19T05:07:00.721Z,0.00
2019-01-19T05:08:00.802Z,0.00
2019-01-19T05:09:00.909Z,0.00
2019-01-19T05:10:00.994Z,0.00
2019-01-19T05:11:05.043Z,0.00
2019-01-19T05:12:01.134Z,0.00
2019-01-19T05:13:01.218Z,0.00
2019-01-19T05:14:01.301Z,0.00
2019-01-19T05:15:01.395Z,0.00
2019-01-19T05:16:01.481Z,0.00
2019-01-19T05:17:05.010Z,0.00
2019-01-19T05:18:01.604Z,0.00
2019-01-19T05:19:01.685Z,0.00
2019-01-19T05:20:01.774Z,0.00
2019-01-19T05:21:01.855Z,0.00
2019-01-19T05:22:01.955Z,0.00
2019-01-19T05:23:05.993Z,0.00
2019-01-19T05:24:02.074Z,0.00
2019-01-19T05:25:02.193Z,0.00
2019-01-19T05:26:02.247Z,0.00
2019-01-19T05:27:02.335Z,0.00
2019-01-19T05:28:02.415Z,0.00
2019-01-19T05:29:05.978Z,0.00
2019-01-19T05:30:02.561Z,0.00
2019-01-19T05:31:02.650Z,0.00
2019-01-19T05:32:02.739Z,0.00
2019-01-19T05:33:02.819Z,0.00
2019-01-19T05:34:02.907Z,0.00
2019-01-19T05:35:06.974Z,0.00
2019-01-19T05:36:03.057Z,0.00
2019-01-19T05:37:03.139Z,0.00
2019-01-19T05:38:03.229Z,0.00
2019-01-19T05:39:03.307Z,0.00
2019-01-19T05:40:03.407Z,0.00
2019-01-19T05:41:06.984Z,0.00
2019-01-19T05:42:03.573Z,0.00
2019-01-19T05:43:03.655Z,0.00
2019-01-19T05:44:03.743Z,0.00
2019-01-19T05:45:03.847Z,0.00
2019-01-19T05:46:03.938Z,0.00
2019-01-19T05:47:07.935Z,0.00
2019-01-19T05:48:04.146Z,0.00
2019-01-19T05:49:04.232Z,0.00
2019-01-19T05:50:04.310Z,0.00
2019-01-19T05:51:04.393Z,0.00
2019-01-19T05:52:04.484Z,0.00
2019-01-19T05:53:07.919Z,0.00
2019-01-19T05:54:04.654Z,0.00
2019-01-19T05:55:04.722Z,0.00
2019-01-19T05:56:04.804Z,0.00
2019-01-19T05:57:04.888Z,0.00
2019-01-19T05:58:04.989Z,0.00
2019-01-19T05:59:08.892Z,0.00
2019-01-19T06:00:05.102Z,0.00
2019-01-19T06:01:05.196Z,0.00
2019-01-19T06:02:05.281Z,0.00
2019-01-19T06:03:05.364Z,0.00
2019-01-19T06:04:05.449Z,0.00
2019-01-19T06:05:08.896Z,0.00
2019-01-19T06:06:05.605Z,0.00
2019-01-19T06:07:05.689Z,0.00
2019-01-19T06:08:05.772Z,0.00
2019-01-19T06:09:05.858Z,0.00
2019-01-19T06:10:05.943Z,0.00
2019-01-19T06:11:09.913Z,0.00
2019-01-19T06:12:06.119Z,0.00
2019-01-19T06:13:06.205Z,0.00
2019-01-19T06:14:06.293Z,0.00
2019-01-19T06:15:06.378Z,0.00
2019-01-19T06:16:06.472Z,0.00
2019-01-19T06:17:09.894Z,0.00
2019-01-19T06:18:06.608Z,0.00
2019-01-19T06:19:06.693Z,0.00
2019-01-19T06:20:06.773Z,0.00
2019-01-19T06:21:06.852Z,0.00
2019-01-19T06:22:06.946Z,0.00
2019-01-19T06:23:10.869Z,0.00
2019-01-19T06:24:07.076Z,0.00
2019-01-19T06:25:07.179Z,0.00
2019-01-19T06:26:07.245Z,0.00
2019-01-19T06:27:07.327Z,0.00
2019-01-19T06:28:07.416Z,0.00
2019-01-19T06:29:10.843Z,0.00
2019-01-19T06:30:07.554Z,0.00
2019-01-19T06:31:07.708Z,0.00
2019-01-19T06:32:07.777Z,0.00
2019-01-19T06:33:07.863Z,0.00
2019-01-19T06:34:12.014Z,0.00
2019-01-19T06:35:08.106Z,0.00
2019-01-19T06:36:08.191Z,0.00
2019-01-19T06:37:08.278Z,0.00
2019-01-19T06:38:08.366Z,0.00
2019-01-19T06:39:08.461Z,0.00
2019-01-19T06:40:12.035Z,0.00
2019-01-19T06:41:08.612Z,0.00
2019-01-19T06:42:08.703Z,0.00
2019-01-19T06:43:08.777Z,0.00
2019-01-19T06:44:08.862Z,4.00
2019-01-19T06:45:08.995Z,4.00
2019-01-19T06:46:12.969Z,0.00
2019-01-19T06:47:09.179Z,4.00
2019-01-19T06:48:09.263Z,4.00
2019-01-19T06:49:09.346Z,4.00
2019-01-19T06:50:09.438Z,4.00
2019-01-19T06:51:09.527Z,4.00
2019-01-19T06:52:12.947Z,4.00
2019-01-19T06:53:09.664Z,8.00
2019-01-19T06:54:09.752Z,12.00
2019-01-19T06:55:09.837Z,12.00
2019-01-19T06:56:09.929Z,16.00
2019-01-19T06:57:10.015Z,12.00
2019-01-19T06:58:13.925Z,16.00
2019-01-19T06:59:17.114Z,20.00
2019-01-19T07:00:10.222Z,24.00
2019-01-19T07:01:10.306Z,28.00
2019-01-19T07:02:10.386Z,28.00
2019-01-19T07:03:10.478Z,32.00
2019-01-19T07:04:13.990Z,36.00
2019-01-19T07:05:10.678Z,44.00
2019-01-19T07:06:10.764Z,48.00
2019-01-19T07:07:10.841Z,52.00
2019-01-19T07:08:10.942Z,60.00
2019-01-19T07:09:11.042Z,64.00
2019-01-19T07:10:14.972Z,72.00
2019-01-19T07:11:11.227Z,80.00
2019-01-19T07:12:11.311Z,88.00
2019-01-19T07:13:11.396Z,96.00
2019-01-19T07:14:11.474Z,104.00
2019-01-19T07:15:11.571Z,112.00
2019-01-19T07:16:14.961Z,124.00
2019-01-19T07:17:11.802Z,136.00
2019-01-19T07:18:11.889Z,144.00
2019-01-19T07:19:11.974Z,160.00
2019-01-19T07:20:12.056Z,172.00
2019-01-19T07:21:16.126Z,184.00
2019-01-19T07:22:12.211Z,196.00
2019-01-19T07:23:12.293Z,208.00
2019-01-19T07:24:12.384Z,220.00
2019-01-19T07:25:12.462Z,236.00
2019-01-19T07:26:12.552Z,244.00
2019-01-19T07:27:16.091Z,260.00
2019-01-19T07:28:12.681Z,276.00
2019-01-19T07:29:12.763Z,288.00
2019-01-19T07:30:12.847Z,304.00
2019-01-19T07:31:12.931Z,316.00
2019-01-19T07:32:13.027Z,332.00
2019-01-19T07:33:17.103Z,352.00
2019-01-19T07:34:13.189Z,368.00
2019-01-19T07:35:13.284Z,384.00
2019-01-19T07:36:13.354Z,404.00
2019-01-19T07:37:13.436Z,424.00
2019-01-19T07:38:13.523Z,440.00
2019-01-19T07:39:17.103Z,456.00
2019-01-19T07:40:13.688Z,472.00
2019-01-19T07:41:13.770Z,492.00
2019-01-19T07:42:13.855Z,508.00
2019-01-19T07:43:13.947Z,532.00
2019-01-19T07:44:14.034Z,556.00
2019-01-19T07:45:18.062Z,580.00
2019-01-19T07:46:14.276Z,600.00
2019-01-19T07:47:14.353Z,624.00
2019-01-19T07:48:14.463Z,652.00
2019-01-19T07:49:14.550Z,680.00
2019-01-19T07:50:14.637Z,712.00
2019-01-19T07:51:18.035Z,724.00
2019-01-19T07:52:14.865Z,736.00
2019-01-19T07:53:14.968Z,780.00
2019-01-19T07:54:15.035Z,816.00
2019-01-19T07:55:15.127Z,844.00
2019-01-19T07:56:19.193Z,860.00
2019-01-19T07:57:15.280Z,880.00
2019-01-19T07:58:15.362Z,908.00
2019-01-19T07:59:15.448Z,948.00
2019-01-19T08:00:15.529Z,980.00
2019-01-19T08:01:15.615Z,1008.00
2019-01-19T08:02:19.178Z,1028.00
2019-01-19T08:03:15.763Z,1060.00
2019-01-19T08:04:15.849Z,1088.00
2019-01-19T08:05:15.933Z,1116.00
2019-01-19T08:06:16.018Z,1152.00
2019-01-19T08:07:17.437Z,1188.00
2019-01-19T08:08:20.171Z,1220.00
2019-01-19T08:09:16.251Z,1232.00
2019-01-19T08:10:16.331Z,1240.00
2019-01-19T08:11:16.422Z,1236.00
2019-01-19T08:12:16.499Z,1232.00
2019-01-19T08:13:16.605Z,1240.00
2019-01-19T08:14:20.145Z,1260.00
2019-01-19T08:15:16.748Z,1292.00
2019-01-19T08:16:16.810Z,1320.00
2019-01-19T08:17:16.892Z,1340.00
2019-01-19T08:18:16.977Z,1360.00
2019-01-19T08:19:17.076Z,1400.00
2019-01-19T08:20:21.120Z,1436.00
2019-01-19T08:21:17.237Z,1456.00
2019-01-19T08:22:17.323Z,1484.00
2019-01-19T08:23:17.411Z,1508.00
2019-01-19T08:24:17.487Z,1524.00
2019-01-19T08:25:17.575Z,1544.00
2019-01-19T08:26:21.114Z,1564.00
2019-01-19T08:27:17.705Z,1580.00
2019-01-19T08:28:17.787Z,1596.00
2019-01-19T08:29:18.462Z,1612.00
2019-01-19T08:30:17.954Z,1628.00
2019-01-19T08:31:18.042Z,1648.00
2019-01-19T08:32:22.095Z,1672.00
2019-01-19T08:33:18.182Z,1692.00
2019-01-19T08:34:18.284Z,1720.00
2019-01-19T08:35:18.375Z,1752.00
2019-01-19T08:36:18.464Z,1772.00
2019-01-19T08:37:24.392Z,1788.00
2019-01-19T08:38:22.087Z,1808.00
2019-01-19T08:39:18.670Z,1824.00
2019-01-19T08:40:18.760Z,1840.00
2019-01-19T08:41:18.842Z,1868.00
2019-01-19T08:42:18.927Z,1900.00
2019-01-19T08:43:19.017Z,1920.00
2019-01-19T08:44:23.066Z,1928.00
2019-01-19T08:45:19.152Z,1932.00
2019-01-19T08:46:19.237Z,1940.00
2019-01-19T08:47:19.335Z,1948.00
2019-01-19T08:48:19.415Z,1956.00
2019-01-19T08:49:19.511Z,1964.00
2019-01-19T08:50:23.034Z,1964.00
2019-01-19T08:51:19.759Z,1976.00
2019-01-19T08:52:19.840Z,1996.00
2019-01-19T08:53:19.925Z,2008.00
2019-01-19T08:54:20.009Z,2012.00
2019-01-19T08:55:20.098Z,2024.00
2019-01-19T08:56:24.056Z,2048.00
2019-01-19T08:57:20.270Z,2076.00
2019-01-19T08:58:20.355Z,2104.00
2019-01-19T08:59:20.441Z,2136.00
2019-01-19T09:00:20.524Z,2172.00
2019-01-19T09:01:20.625Z,2204.00
2019-01-19T09:02:24.021Z,2244.00
2019-01-19T09:03:20.869Z,2288.00
2019-01-19T09:04:20.940Z,2356.00
2019-01-19T09:05:21.025Z,2404.00
2019-01-19T09:06:21.110Z,2392.00
2019-01-19T09:07:33.356Z,2340.00
2019-01-19T09:08:21.278Z,2292.00
2019-01-19T09:09:21.365Z,2244.00
2019-01-19T09:10:21.443Z,2244.00
2019-01-19T09:11:21.536Z,2256.00
2019-01-19T09:12:21.622Z,2288.00
2019-01-19T09:13:25.217Z,2416.00
2019-01-19T09:14:21.802Z,2532.00
2019-01-19T09:15:21.898Z,2520.00
2019-01-19T09:16:21.967Z,2524.00
2019-01-19T09:17:22.055Z,2556.00
2019-01-19T09:18:22.146Z,2580.00
2019-01-19T09:19:26.223Z,2628.00
2019-01-19T09:20:22.345Z,2660.00
2019-01-19T09:21:22.390Z,2672.00
2019-01-19T09:22:22.486Z,2696.00
2019-01-19T09:23:22.569Z,2720.00
2019-01-19T09:24:22.658Z,2752.00
2019-01-19T09:25:26.210Z,2812.00
2019-01-19T09:26:22.796Z,2860.00
2019-01-19T09:27:22.926Z,2896.00
2019-01-19T09:28:23.012Z,2920.00
2019-01-19T09:29:23.103Z,2956.00
2019-01-19T09:30:23.239Z,2984.00
2019-01-19T09:31:27.218Z,3008.00
2019-01-19T09:32:23.318Z,3020.00
2019-01-19T09:33:23.399Z,3092.00
2019-01-19T09:34:23.480Z,3140.00
2019-01-19T09:35:23.582Z,3160.00
2019-01-19T09:36:23.669Z,3192.00
2019-01-19T09:37:27.191Z,3220.00
2019-01-19T09:38:23.907Z,3244.00
2019-01-19T09:39:24.002Z,3260.00
2019-01-19T09:40:24.082Z,3256.00
2019-01-19T09:41:24.172Z,3236.00
2019-01-19T09:42:24.260Z,3212.00
2019-01-19T09:43:28.189Z,3196.00
2019-01-19T09:44:24.400Z,3228.00
2019-01-19T09:45:24.486Z,3240.00
2019-01-19T09:46:24.571Z,3252.00
2019-01-19T09:47:24.663Z,3260.00
2019-01-19T09:48:24.750Z,3276.00
2019-01-19T09:49:28.240Z,3312.00
2019-01-19T09:50:24.952Z,3348.00
2019-01-19T09:51:25.041Z,3376.00
2019-01-19T09:52:25.201Z,3416.00
2019-01-19T09:53:25.224Z,3452.00
2019-01-19T09:54:29.302Z,3512.00
2019-01-19T09:55:25.400Z,3572.00
2019-01-19T09:56:25.487Z,3620.00
2019-01-19T09:57:25.569Z,3668.00
2019-01-19T09:58:25.660Z,3712.00
2019-01-19T09:59:25.760Z,3760.00
2019-01-19T10:00:36.494Z,3824.00
2019-01-19T10:01:25.991Z,3884.00
2019-01-19T10:02:26.069Z,3940.00
2019-01-19T10:03:26.154Z,3992.00
2019-01-19T10:04:26.237Z,4056.00
2019-01-19T10:05:26.337Z,4096.00
2019-01-19T10:06:30.265Z,4140.00
2019-01-19T10:07:26.507Z,4180.00
2019-01-19T10:08:26.574Z,4212.00
2019-01-19T10:09:26.664Z,4236.00
2019-01-19T10:10:26.743Z,4256.00
2019-01-19T10:11:26.829Z,4276.00
2019-01-19T10:12:30.249Z,4300.00
2019-01-19T10:13:26.963Z,4328.00
2019-01-19T10:14:27.048Z,4348.00
2019-01-19T10:15:27.130Z,4372.00
2019-01-19T10:16:27.228Z,4392.00
2019-01-19T10:17:27.311Z,4412.00
2019-01-19T10:18:31.269Z,4452.00
2019-01-19T10:19:27.469Z,4516.00
2019-01-19T10:20:27.559Z,4580.00
2019-01-19T10:21:27.642Z,4640.00
2019-01-19T10:22:27.720Z,4688.00
2019-01-19T10:23:27.809Z,4720.00
2019-01-19T10:24:31.218Z,4736.00
2019-01-19T10:25:27.932Z,4740.00
2019-01-19T10:26:28.015Z,4744.00
2019-01-19T10:27:28.102Z,4756.00
2019-01-19T10:28:28.195Z,4788.00
2019-01-19T10:29:28.284Z,4808.00
2019-01-19T10:30:32.214Z,4820.00
2019-01-19T10:31:28.424Z,4844.00
2019-01-19T10:32:28.511Z,4868.00
2019-01-19T10:33:28.595Z,4892.00
2019-01-19T10:34:28.686Z,4916.00
2019-01-19T10:35:28.769Z,4944.00
2019-01-19T10:36:32.193Z,4980.00
2019-01-19T10:37:28.909Z,5020.00
2019-01-19T10:38:28.991Z,5056.00
2019-01-19T10:39:29.071Z,5104.00
2019-01-19T10:40:29.163Z,5144.00
2019-01-19T10:41:29.249Z,5208.00
2019-01-19T10:42:33.182Z,5260.00
2019-01-19T10:43:29.398Z,5312.00
2019-01-19T10:44:29.476Z,5356.00
2019-01-19T10:45:29.569Z,5388.00
2019-01-19T10:46:29.660Z,5432.00
2019-01-19T10:47:29.752Z,5484.00
2019-01-19T10:48:33.163Z,5552.00
2019-01-19T10:49:29.881Z,5624.00
2019-01-19T10:50:29.967Z,5704.00
2019-01-19T10:51:30.053Z,5788.00
2019-01-19T10:52:30.148Z,5864.00
2019-01-19T10:53:30.252Z,5948.00
2019-01-19T10:54:34.156Z,6044.00
2019-01-19T10:55:30.480Z,6140.00
2019-01-19T10:56:30.571Z,6228.00
2019-01-19T10:57:30.665Z,6316.00
2019-01-19T10:58:30.734Z,6392.00
2019-01-19T10:59:30.824Z,6464.00
2019-01-19T11:00:34.132Z,6528.00
2019-01-19T11:01:30.972Z,6596.00
2019-01-19T11:02:31.105Z,6668.00
2019-01-19T11:03:31.187Z,6736.00
2019-01-19T11:04:31.273Z,6808.00
2019-01-19T11:05:35.329Z,6924.00
2019-01-19T11:06:31.397Z,7056.00
2019-01-19T11:07:31.482Z,7204.00
2019-01-19T11:08:31.570Z,7368.00
2019-01-19T11:09:31.661Z,7532.00
2019-01-19T11:10:31.751Z,7680.00
2019-01-19T11:11:35.279Z,7856.00
2019-01-19T11:12:32.001Z,8112.00
2019-01-19T11:13:32.079Z,8508.00
2019-01-19T11:14:32.165Z,9296.00
2019-01-19T11:15:32.260Z,16364.00
2019-01-19T11:16:32.340Z,30656.00
2019-01-19T11:17:36.282Z,36192.00
2019-01-19T11:18:32.495Z,37024.00
2019-01-19T11:19:32.585Z,39552.00
2019-01-19T11:20:32.669Z,43008.00
2019-01-19T11:21:32.754Z,46432.00
2019-01-19T11:22:32.885Z,46080.00
2019-01-19T11:23:39.832Z,46688.00
2019-01-19T11:24:33.097Z,44736.00
2019-01-19T11:25:33.186Z,42720.00
2019-01-19T11:26:33.278Z,43232.00
2019-01-19T11:27:33.368Z,40768.00
2019-01-19T11:28:37.465Z,36928.00
2019-01-19T11:29:33.550Z,36992.00
2019-01-19T11:30:33.645Z,37952.00
2019-01-19T11:31:33.729Z,33536.00
2019-01-19T11:32:33.908Z,31552.00
2019-01-19T11:33:33.944Z,29472.00
2019-01-19T11:34:37.404Z,28160.00
2019-01-19T11:35:34.113Z,31072.00
2019-01-19T11:36:34.208Z,32544.00
2019-01-19T11:37:34.299Z,27680.00
2019-01-19T11:38:34.397Z,24256.00
2019-01-19T11:39:34.483Z,20672.00
2019-01-19T11:40:38.387Z,26336.00
2019-01-19T11:41:34.724Z,32704.00
2019-01-19T11:42:34.816Z,25312.00
2019-01-19T11:43:34.918Z,22976.00
2019-01-19T11:44:35.002Z,28512.00
2019-01-19T11:45:35.090Z,31360.00
2019-01-19T11:46:38.376Z,34080.00
2019-01-19T11:47:35.338Z,33824.00
2019-01-19T11:48:35.430Z,32928.00
2019-01-19T11:49:35.528Z,35616.00
2019-01-19T11:50:35.621Z,31872.00
2019-01-19T11:51:39.547Z,21088.00
2019-01-19T11:52:35.765Z,26592.00
2019-01-19T11:53:35.863Z,43840.00
2019-01-19T11:54:35.973Z,44960.00
2019-01-19T11:55:36.065Z,38944.00
2019-01-19T11:56:36.162Z,32160.00
2019-01-19T11:57:39.523Z,19840.00
2019-01-19T11:58:36.352Z,15296.00
2019-01-19T11:59:36.437Z,18528.00
2019-01-19T12:00:36.587Z,20928.00
2019-01-19T12:01:36.697Z,28064.00
2019-01-19T12:02:40.678Z,24352.00
2019-01-19T12:03:36.898Z,15436.00
2019-01-19T12:04:36.978Z,15808.00
2019-01-19T12:05:37.082Z,19360.00
2019-01-19T12:06:37.171Z,21760.00
2019-01-19T12:07:40.820Z,33952.00
2019-01-19T12:08:37.409Z,54112.00
2019-01-19T12:09:37.499Z,59616.00
2019-01-19T12:10:37.591Z,40672.00
2019-01-19T12:11:37.709Z,23648.00
2019-01-19T12:12:37.777Z,22912.00
2019-01-19T12:13:41.803Z,28704.00
2019-01-19T12:14:38.019Z,28608.00
2019-01-19T12:15:38.113Z,27936.00
2019-01-19T12:16:38.245Z,32416.00
2019-01-19T12:17:38.294Z,37344.00
2019-01-19T12:18:38.388Z,36448.00
2019-01-19T12:19:41.784Z,45696.00
2019-01-19T12:20:38.627Z,54240.00
2019-01-19T12:21:38.724Z,49440.00
2019-01-19T12:22:38.814Z,48416.00
2019-01-19T12:23:38.908Z,54048.00
2019-01-19T12:24:42.956Z,61600.00
2019-01-19T12:25:39.152Z,64896.00
2019-01-19T12:26:39.243Z,62464.00
2019-01-19T12:27:39.350Z,40608.00
2019-01-19T12:28:39.437Z,33344.00
2019-01-19T12:29:39.540Z,35104.00
2019-01-19T12:30:42.936Z,40608.00
2019-01-19T12:31:39.784Z,62272.00
2019-01-19T12:32:39.886Z,74016.00
2019-01-19T12:33:39.975Z,66080.00
2019-01-19T12:34:40.071Z,65760.00
2019-01-19T12:35:44.095Z,65952.00
2019-01-19T12:36:40.312Z,66944.00
2019-01-19T12:37:40.415Z,71616.00
2019-01-19T12:38:40.502Z,67328.00
2019-01-19T12:39:40.593Z,56896.00
2019-01-19T12:40:40.708Z,56192.00
2019-01-19T12:41:44.090Z,56480.00
2019-01-19T12:42:40.953Z,63104.00
2019-01-19T12:43:41.035Z,69600.00
2019-01-19T12:44:41.150Z,67488.00